createdAt,value
2016-03-14T08:50:48.007Z,2345
2016-03-14T08:51:01.897Z,2370
2016-03-14T08:51:15.884Z,2375
2016-03-14T08:51:29.946Z,2380
2016-03-14T08:51:43.993Z,2385
2016-03-14T08:51:57.884Z,2400
2016-03-14T08:52:11.902Z,2420
2016-03-14T08:52:28.449Z,2445
2016-03-14T08:52:44.074Z,2465
2016-03-14T08:52:58.090Z,2480
2016-03-14T08:53:12.327Z,2510
2016-03-14T08:53:25.499Z,2555
2016-03-14T08:53:39.374Z,2595
2016-03-14T08:53:53.624Z,2620
2016-03-14T08:54:07.655Z,2645
2016-03-14T08:54:21.595Z,2690
2016-03-14T08:54:35.735Z,2720
2016-03-14T08:54:49.751Z,2745
2016-03-14T08:55:03.767Z,2730
2016-03-14T08:55:17.863Z,2680
2016-03-14T08:55:32.098Z,2630
2016-03-14T08:55:46.113Z,2620
2016-03-14T08:56:00.176Z,2620
2016-03-14T08:56:14.069Z,2610
2016-03-14T08:56:28.085Z,2585
2016-03-14T08:56:42.101Z,2535
2016-03-14T08:56:55.976Z,2460
2016-03-14T08:57:09.884Z,2365
2016-03-14T08:57:23.743Z,2265
2016-03-14T08:57:37.650Z,2185
2016-03-14T08:57:51.665Z,2100
2016-03-14T08:58:05.618Z,2110
2016-03-14T08:58:19.512Z,2175
2016-03-14T08:58:33.653Z,2255
2016-03-14T08:58:47.543Z,2320
2016-03-14T08:59:01.481Z,2395
2016-03-14T08:59:15.687Z,2520
2016-03-14T08:59:29.874Z,2680
2016-03-14T08:59:43.952Z,2800
2016-03-14T08:59:57.843Z,2850
2016-03-14T09:00:12.096Z,2810
2016-03-14T09:00:26.096Z,2800
2016-03-14T09:00:40.002Z,2820
2016-03-14T09:00:54.018Z,2835
2016-03-14T09:01:07.830Z,2810
2016-03-14T09:01:21.692Z,2740
2016-03-14T09:01:35.551Z,2720
2016-03-14T09:01:49.692Z,2730
2016-03-14T09:02:06.707Z,2700
2016-03-14T09:02:20.554Z,2690
2016-03-14T09:02:34.710Z,2680
2016-03-14T09:02:48.710Z,2675
2016-03-14T09:03:02.601Z,2725
2016-03-14T09:03:17.244Z,2815
2016-03-14T09:03:30.994Z,2880
2016-03-14T09:03:44.900Z,2890
2016-03-14T09:03:58.978Z,2840
2016-03-14T09:04:12.794Z,2815
2016-03-14T09:04:26.669Z,2830
2016-03-14T09:04:40.637Z,2855
2016-03-14T09:04:55.122Z,2820
2016-03-14T09:05:09.031Z,2755
2016-03-14T09:05:22.922Z,2680
2016-03-14T09:05:36.609Z,2645
2016-03-14T09:05:50.437Z,2680
2016-03-14T09:06:04.390Z,2725
2016-03-14T09:06:18.534Z,2760
2016-03-14T09:06:32.675Z,2770
2016-03-14T09:06:46.690Z,2790
2016-03-14T09:07:01.440Z,2830
2016-03-14T09:07:15.364Z,2900
2016-03-14T09:07:29.520Z,2960
2016-03-14T09:07:43.427Z,3010
2016-03-14T09:07:57.302Z,2995
2016-03-14T09:08:11.258Z,2970
2016-03-14T09:08:25.258Z,2975
2016-03-14T09:08:39.398Z,2965
2016-03-14T09:08:53.476Z,2945
2016-03-14T09:09:07.742Z,2920
2016-03-14T09:09:21.682Z,2905
2016-03-14T09:09:35.697Z,2885
2016-03-14T09:09:49.947Z,2885
2016-03-14T09:10:04.447Z,2905
2016-03-14T09:10:18.419Z,2935
2016-03-14T09:10:32.435Z,2965
2016-03-14T09:10:46.450Z,2965
2016-03-14T09:11:00.825Z,2940
2016-03-14T09:11:14.703Z,2970
2016-03-14T09:11:28.719Z,2990
2016-03-14T09:11:42.906Z,3000
2016-03-14T09:11:56.813Z,2965
2016-03-14T09:12:10.830Z,2915
2016-03-14T09:12:24.705Z,2895
2016-03-14T09:12:38.721Z,2890
2016-03-14T09:12:52.611Z,2900
2016-03-14T09:13:05.799Z,2900
2016-03-14T09:13:19.693Z,2895
2016-03-14T09:13:34.021Z,2880
2016-03-14T09:13:48.411Z,2880
2016-03-14T09:14:02.271Z,2875
2016-03-14T09:14:16.430Z,2880
2016-03-14T09:14:30.680Z,2880
2016-03-14T09:14:44.586Z,2845
2016-03-14T09:14:58.727Z,2790
2016-03-14T09:15:12.808Z,2760
2016-03-14T09:15:27.042Z,2765
2016-03-14T09:15:40.949Z,2785
2016-03-14T09:15:55.105Z,2830
2016-03-14T09:16:08.841Z,2845
2016-03-14T09:16:23.013Z,2890
2016-03-14T09:16:36.872Z,2965
2016-03-14T09:16:50.951Z,3005
2016-03-14T09:17:05.122Z,3065
2016-03-14T09:17:19.110Z,3080
2016-03-14T09:17:33.047Z,3085
2016-03-14T09:17:46.938Z,3100
2016-03-14T09:18:00.938Z,3105
2016-03-14T09:18:14.831Z,3085
2016-03-14T09:18:28.971Z,3080
2016-03-14T09:18:42.909Z,3095
2016-03-14T09:18:56.940Z,3135
2016-03-14T09:19:10.944Z,3150
2016-03-14T09:19:25.100Z,3135
2016-03-14T09:19:39.475Z,3120
2016-03-14T09:19:53.366Z,3100
2016-03-14T09:20:07.506Z,3115
2016-03-14T09:20:21.696Z,3150
2016-03-14T09:20:35.837Z,3140
2016-03-14T09:20:49.837Z,3140
2016-03-14T09:21:03.868Z,3145
2016-03-14T09:21:17.871Z,3145
2016-03-14T09:21:31.980Z,3115
2016-03-14T09:21:45.949Z,3075
2016-03-14T09:22:00.027Z,3070
2016-03-14T09:22:13.857Z,3060
2016-03-14T09:22:41.810Z,3035
2016-03-14T09:22:55.857Z,3040
2016-03-14T09:23:09.720Z,3040
2016-03-14T09:23:23.610Z,3035
2016-03-14T09:23:37.751Z,3025
2016-03-14T09:23:51.813Z,3000
2016-03-14T09:24:06.204Z,2975
2016-03-14T09:24:20.393Z,2945
2016-03-14T09:24:34.425Z,2950
2016-03-14T09:24:48.300Z,2960
2016-03-14T09:25:02.753Z,2985
2016-03-14T09:25:16.897Z,3000
2016-03-14T09:25:31.147Z,3010
2016-03-14T09:25:45.085Z,3040
2016-03-14T09:25:58.976Z,3045
2016-03-14T09:26:13.056Z,3055
2016-03-14T09:26:27.228Z,3065
2016-03-14T09:26:41.509Z,3065
2016-03-14T09:26:55.728Z,3070
2016-03-14T09:27:09.793Z,3085
2016-03-14T09:27:23.793Z,3085
2016-03-14T09:27:37.809Z,3070
2016-03-14T09:27:51.699Z,3050
2016-03-14T09:28:05.777Z,3035
2016-03-14T09:28:19.795Z,3035
2016-03-14T09:28:33.686Z,3055
2016-03-14T09:28:47.561Z,3085
2016-03-14T09:29:01.576Z,3115
2016-03-14T09:29:15.095Z,3140
2016-03-14T09:29:29.111Z,3145
2016-03-14T09:29:43.236Z,3125
2016-03-14T09:29:57.251Z,3110
2016-03-14T09:30:11.410Z,3095
2016-03-14T09:30:25.145Z,3130
2016-03-14T09:30:38.410Z,3140
2016-03-14T09:30:52.692Z,3125
2016-03-14T09:31:06.707Z,3105
2016-03-14T09:31:20.647Z,3095
2016-03-14T09:31:34.741Z,3110
2016-03-14T09:31:48.741Z,3120
2016-03-14T09:32:03.147Z,3120
2016-03-14T09:32:17.229Z,3100
2016-03-14T09:32:30.760Z,3045
2016-03-14T09:32:44.963Z,3025
2016-03-14T09:32:59.182Z,3035
2016-03-14T09:33:13.137Z,3090
2016-03-14T09:33:27.200Z,3110
2016-03-14T09:33:41.293Z,3115
2016-03-14T09:33:55.153Z,3080
2016-03-14T09:34:09.250Z,3040
2016-03-14T09:34:23.609Z,3015
2016-03-14T09:34:37.625Z,3005
2016-03-14T09:34:52.046Z,3000
2016-03-14T09:35:06.343Z,2990
2016-03-14T09:35:20.439Z,2960
2016-03-14T09:35:34.689Z,2940
2016-03-14T09:35:48.689Z,2930
2016-03-14T09:36:02.720Z,2925
2016-03-14T09:36:16.723Z,2970
2016-03-14T09:36:30.286Z,3015
2016-03-14T09:36:44.348Z,3045
2016-03-14T09:36:58.255Z,3050
2016-03-14T09:37:12.195Z,3030
2016-03-14T09:37:26.148Z,3005
2016-03-14T09:37:40.414Z,3000
2016-03-14T09:37:54.664Z,3010
2016-03-14T09:38:08.682Z,3025
2016-03-14T09:38:22.682Z,3030
2016-03-14T09:38:36.651Z,2995
2016-03-14T09:38:50.651Z,3005
2016-03-14T09:39:05.120Z,3040
2016-03-14T09:39:19.122Z,3045
2016-03-14T09:39:33.138Z,3055
2016-03-14T09:39:47.231Z,3065
2016-03-14T09:40:01.450Z,3070
2016-03-14T09:40:15.531Z,3070
2016-03-14T09:40:29.578Z,3055
2016-03-14T09:40:43.562Z,3065
2016-03-14T09:40:57.500Z,3075
2016-03-14T09:41:11.659Z,3060
2016-03-14T09:41:25.847Z,3040
2016-03-14T09:41:39.675Z,3050
2016-03-14T09:41:53.815Z,3080
2016-03-14T09:42:07.706Z,3135
2016-03-14T09:42:21.647Z,3125
2016-03-14T09:42:36.162Z,3160
2016-03-14T09:42:50.178Z,3125
2016-03-14T09:43:04.506Z,3100
2016-03-14T09:43:18.758Z,3085
2016-03-14T09:43:32.727Z,3070
2016-03-14T09:43:46.649Z,3045
2016-03-14T09:44:00.524Z,3035
2016-03-14T09:44:13.683Z,3030
2016-03-14T09:44:27.698Z,3015
2016-03-14T09:44:41.636Z,3010
2016-03-14T09:44:55.667Z,3030
2016-03-14T09:45:09.248Z,3035
2016-03-14T09:45:23.061Z,3055
2016-03-14T09:45:37.326Z,3060
2016-03-14T09:45:51.608Z,3045
2016-03-14T09:46:05.545Z,3055
2016-03-14T09:46:33.672Z,3025
2016-03-14T09:46:47.703Z,3015
2016-03-14T09:47:01.875Z,3000
2016-03-14T09:47:15.769Z,3015
2016-03-14T09:47:29.691Z,3050
2016-03-14T09:47:43.769Z,3090
2016-03-14T09:47:58.441Z,3090
2016-03-14T09:48:12.833Z,3070
2016-03-14T09:48:26.771Z,3035
2016-03-14T09:48:41.099Z,2975
2016-03-14T09:48:55.130Z,2960
2016-03-14T09:49:09.118Z,2965
2016-03-14T09:49:23.133Z,2980
2016-03-14T09:49:37.024Z,2975
2016-03-14T09:49:51.336Z,2965
2016-03-14T09:50:05.415Z,2955
2016-03-14T09:50:19.683Z,2975
2016-03-14T09:50:33.902Z,2990
2016-03-14T09:50:47.964Z,3055
2016-03-14T09:51:01.980Z,3085
2016-03-14T09:51:16.029Z,3130
2016-03-14T09:51:29.998Z,3145
2016-03-14T09:51:44.248Z,3155
2016-03-14T09:51:58.638Z,3155
2016-03-14T09:52:12.830Z,3130
2016-03-14T09:52:26.970Z,3110
2016-03-14T09:52:41.002Z,3115
2016-03-14T09:52:55.002Z,3130
2016-03-14T09:53:09.004Z,3105
2016-03-14T09:53:23.332Z,3040
2016-03-14T09:53:37.285Z,2990
2016-03-14T09:53:51.222Z,2965
2016-03-14T09:54:05.535Z,2990
2016-03-14T09:54:19.663Z,3020
2016-03-14T09:54:33.757Z,3035
2016-03-14T09:54:47.835Z,3015
2016-03-14T09:55:02.350Z,3030
2016-03-14T09:55:17.368Z,3000
2016-03-14T09:55:31.493Z,3085
2016-03-14T09:55:45.634Z,3110
2016-03-14T09:55:59.571Z,3145
2016-03-14T09:56:13.652Z,3115
2016-03-14T09:56:27.777Z,3100
2016-03-14T09:56:41.934Z,3100
2016-03-14T09:56:55.996Z,3115
2016-03-14T09:57:10.076Z,3130
2016-03-14T09:57:24.139Z,3125
2016-03-14T09:57:52.170Z,3025
2016-03-14T09:58:06.498Z,3020
2016-03-14T09:58:20.626Z,3040
2016-03-14T09:58:34.642Z,3050
2016-03-14T09:58:48.548Z,3060
2016-03-14T09:59:02.548Z,3060
2016-03-14T09:59:16.567Z,3055
2016-03-14T09:59:30.738Z,3050
2016-03-14T09:59:44.723Z,3040
2016-03-14T09:59:58.848Z,3035
2016-03-14T10:00:13.195Z,3045
2016-03-14T10:00:27.491Z,3075
2016-03-14T10:00:41.382Z,3060
2016-03-14T10:00:56.023Z,3090
2016-03-14T10:01:10.445Z,3120
2016-03-14T10:01:24.557Z,3140
2016-03-14T10:01:38.479Z,3180
2016-03-14T10:01:52.135Z,3205
2016-03-14T10:02:06.260Z,3240
2016-03-14T10:02:19.465Z,3260
2016-03-14T10:02:33.543Z,3240
2016-03-14T10:02:47.668Z,3190
2016-03-14T10:03:01.918Z,3130
2016-03-14T10:03:15.874Z,3115
2016-03-14T10:03:29.906Z,3130
2016-03-14T10:03:43.718Z,3155
2016-03-14T10:03:57.781Z,3160
2016-03-14T10:04:25.893Z,3180
2016-03-14T10:04:40.393Z,3195
2016-03-14T10:04:54.346Z,3210
2016-03-14T10:05:08.346Z,3185
2016-03-14T10:05:22.786Z,3165
2016-03-14T10:05:36.879Z,3125
2016-03-14T10:05:50.754Z,3095
2016-03-14T10:06:04.708Z,3085
2016-03-14T10:06:18.340Z,3075
2016-03-14T10:06:32.590Z,3085
2016-03-14T10:06:46.965Z,3115
2016-03-14T10:07:01.137Z,3185
2016-03-14T10:07:14.582Z,3225
2016-03-14T10:07:28.644Z,3260
2016-03-14T10:07:42.550Z,3275
2016-03-14T10:07:56.566Z,3270
2016-03-14T10:08:10.707Z,3275
2016-03-14T10:08:24.789Z,3280
2016-03-14T10:08:38.742Z,3265
2016-03-14T10:08:53.383Z,3225
2016-03-14T10:09:07.711Z,3170
2016-03-14T10:09:21.556Z,3135
2016-03-14T10:09:35.713Z,3140
2016-03-14T10:09:49.650Z,3170
2016-03-14T10:10:03.775Z,3175
2016-03-14T10:10:17.934Z,3170
2016-03-14T10:10:31.809Z,3140
2016-03-14T10:10:48.794Z,3140
2016-03-14T10:11:17.140Z,3180
2016-03-14T10:11:31.390Z,3165
2016-03-14T10:11:45.655Z,3140
2016-03-14T10:11:59.874Z,3125
2016-03-14T10:12:13.877Z,3115
2016-03-14T10:12:27.924Z,3130
2016-03-14T10:12:41.783Z,3130
2016-03-14T10:12:55.658Z,3165
2016-03-14T10:13:09.486Z,3160
2016-03-14T10:13:23.489Z,3175
2016-03-14T10:13:37.755Z,3170
2016-03-14T10:13:51.942Z,3170
2016-03-14T10:14:05.989Z,3155
2016-03-14T10:14:20.149Z,3165
2016-03-14T10:14:34.195Z,3160
2016-03-14T10:14:48.336Z,3165
2016-03-14T10:15:02.289Z,3165
2016-03-14T10:15:16.244Z,3175
2016-03-14T10:15:29.494Z,3195
2016-03-14T10:15:43.432Z,3235
2016-03-14T10:15:57.432Z,3280
2016-03-14T10:16:11.447Z,3300
2016-03-14T10:16:25.716Z,3295
2016-03-14T10:16:39.732Z,3260
2016-03-14T10:16:53.950Z,3225
2016-03-14T10:17:07.888Z,3220
2016-03-14T10:17:20.968Z,3215
2016-03-14T10:17:34.984Z,3235
2016-03-14T10:17:49.312Z,3230
2016-03-14T10:18:03.593Z,3220
2016-03-14T10:18:17.518Z,3230
2016-03-14T10:18:31.627Z,3235
2016-03-14T10:18:45.580Z,3220
2016-03-14T10:18:59.799Z,3220
2016-03-14T10:19:14.068Z,3185
2016-03-14T10:19:28.005Z,3140
2016-03-14T10:19:42.224Z,3135
2016-03-14T10:19:56.146Z,3145
2016-03-14T10:20:10.177Z,3130
2016-03-14T10:20:24.054Z,3145
2016-03-14T10:20:38.382Z,3165
2016-03-14T10:20:52.695Z,3185
2016-03-14T10:21:06.960Z,3200
2016-03-14T10:21:21.043Z,3215
2016-03-14T10:21:34.996Z,3245
2016-03-14T10:21:49.574Z,3235
2016-03-14T10:22:03.574Z,3265
2016-03-14T10:22:17.451Z,3260
2016-03-14T10:22:31.341Z,3260
2016-03-14T10:22:45.685Z,3240
2016-03-14T10:22:59.810Z,3210
2016-03-14T10:23:13.751Z,3190
2016-03-14T10:23:27.766Z,3170
2016-03-14T10:23:41.704Z,3175
2016-03-14T10:23:55.798Z,3190
2016-03-14T10:24:09.798Z,3240
2016-03-14T10:24:24.018Z,3275
2016-03-14T10:24:37.971Z,3325
2016-03-14T10:24:51.971Z,3320
2016-03-14T10:25:06.237Z,3320
2016-03-14T10:25:20.803Z,3295
2016-03-14T10:25:35.553Z,3285
2016-03-14T10:25:49.740Z,3255
2016-03-14T10:26:03.818Z,3205
2016-03-14T10:26:17.962Z,3175
2016-03-14T10:26:32.134Z,3155
2016-03-14T10:26:46.431Z,3165
2016-03-14T10:27:00.431Z,3170
2016-03-14T10:27:14.386Z,3180
2016-03-14T10:27:28.401Z,3195
2016-03-14T10:27:42.511Z,3265
2016-03-14T10:27:57.026Z,3375
2016-03-14T10:28:11.026Z,3455
2016-03-14T10:28:25.030Z,3490
2016-03-14T10:28:39.187Z,3475
2016-03-14T10:28:53.827Z,3450
2016-03-14T10:29:07.968Z,3450
2016-03-14T10:29:21.939Z,3425
2016-03-14T10:29:35.860Z,3405
2016-03-14T10:29:50.173Z,3355
2016-03-14T10:30:03.282Z,3320
2016-03-14T10:30:17.363Z,3300
2016-03-14T10:30:31.567Z,3280
2016-03-14T10:30:45.504Z,3285
2016-03-14T10:30:59.832Z,3280
2016-03-14T10:31:13.772Z,3280
2016-03-14T10:31:27.912Z,3280
2016-03-14T10:31:42.162Z,3275
2016-03-14T10:31:56.444Z,3280
2016-03-14T10:32:10.381Z,3320
2016-03-14T10:32:24.384Z,3355
2016-03-14T10:32:38.931Z,3380
2016-03-14T10:32:52.697Z,3380
2016-03-14T10:33:06.743Z,3365
2016-03-14T10:33:20.621Z,3345
2016-03-14T10:33:34.996Z,3305
2016-03-14T10:33:49.012Z,3295
2016-03-14T10:34:02.918Z,3260
2016-03-14T10:34:17.312Z,3250
2016-03-14T10:34:31.187Z,3235
2016-03-14T10:34:45.937Z,3235
2016-03-14T10:34:59.984Z,3240
2016-03-14T10:35:14.142Z,3265
2016-03-14T10:35:28.236Z,3305
2016-03-14T10:35:42.111Z,3335
2016-03-14T10:35:56.126Z,3370
2016-03-14T10:36:10.314Z,3365
2016-03-14T10:36:24.128Z,3375
2016-03-14T10:36:37.988Z,3385
2016-03-14T10:36:52.253Z,3400
2016-03-14T10:37:06.128Z,3410
2016-03-14T10:37:20.131Z,3395
2016-03-14T10:37:34.366Z,3370
2016-03-14T10:37:48.225Z,3355
2016-03-14T10:38:02.100Z,3340
2016-03-14T10:38:16.041Z,3320
2016-03-14T10:38:29.963Z,3325
2016-03-14T10:38:43.916Z,3335
2016-03-14T10:38:57.978Z,3335
2016-03-14T10:39:26.137Z,3295
2016-03-14T10:39:40.091Z,3335
2016-03-14T10:39:54.044Z,3385
2016-03-14T10:40:07.966Z,3405
2016-03-14T10:40:21.921Z,3400
2016-03-14T10:40:36.030Z,3400
2016-03-14T10:40:53.124Z,3400
2016-03-14T10:41:07.124Z,3415
2016-03-14T10:41:21.017Z,3425
2016-03-14T10:41:34.924Z,3405
2016-03-14T10:41:48.924Z,3375
2016-03-14T10:42:02.861Z,3375
2016-03-14T10:42:17.208Z,3400
2016-03-14T10:42:31.208Z,3405
2016-03-14T10:42:45.474Z,3395
2016-03-14T10:42:59.458Z,3385
2016-03-14T10:43:13.477Z,3365
2016-03-14T10:43:27.758Z,3320
2016-03-14T10:43:41.852Z,3300
2016-03-14T10:43:55.867Z,3285
2016-03-14T10:44:09.789Z,3300
2016-03-14T10:44:23.916Z,3330
2016-03-14T10:44:38.057Z,3355
2016-03-14T10:44:52.307Z,3370
2016-03-14T10:45:06.463Z,3395
2016-03-14T10:45:20.528Z,3380
2016-03-14T10:45:34.560Z,3385
2016-03-14T10:45:48.450Z,3395
2016-03-14T10:46:01.700Z,3385
2016-03-14T10:46:15.594Z,3375
2016-03-14T10:46:29.485Z,3360
2016-03-14T10:46:44.031Z,3350
2016-03-14T10:46:58.078Z,3365
2016-03-14T10:47:12.188Z,3385
2016-03-14T10:47:26.346Z,3410
2016-03-14T10:47:40.221Z,3400
2016-03-14T10:47:54.221Z,3415
2016-03-14T10:48:08.268Z,3335
2016-03-14T10:48:22.333Z,3315
2016-03-14T10:48:36.396Z,3310
2016-03-14T10:48:53.458Z,3305
2016-03-14T10:49:07.318Z,3310
2016-03-14T10:49:21.477Z,3330
2016-03-14T10:49:35.368Z,3365
2016-03-14T10:49:49.430Z,3400
2016-03-14T10:50:03.539Z,3440
2016-03-14T10:50:17.588Z,3470
2016-03-14T10:50:45.729Z,3430
2016-03-14T10:50:59.807Z,3405
2016-03-14T10:51:13.826Z,3395
2016-03-14T10:51:27.826Z,3385
2016-03-14T10:51:41.716Z,3380
2016-03-14T10:51:55.123Z,3370
2016-03-14T10:52:09.138Z,3365
2016-03-14T10:52:23.578Z,3395
2016-03-14T10:52:37.843Z,3370
2016-03-14T10:52:51.859Z,3390
2016-03-14T10:53:05.750Z,3360
2016-03-14T10:53:20.081Z,3360
2016-03-14T10:53:33.940Z,3360
2016-03-14T10:53:47.831Z,3345
2016-03-14T10:54:02.096Z,3345
2016-03-14T10:54:15.349Z,3340
2016-03-14T10:54:29.568Z,3360
2016-03-14T10:54:43.646Z,3355
2016-03-14T10:54:57.662Z,3360
2016-03-14T10:55:11.599Z,3350
2016-03-14T10:55:25.804Z,3345
2016-03-14T10:55:40.008Z,3330
2016-03-14T10:55:53.883Z,3345
2016-03-14T10:56:07.961Z,3380
2016-03-14T10:56:22.105Z,3440
2016-03-14T10:56:36.183Z,3475
2016-03-14T10:56:50.371Z,3520
2016-03-14T10:57:04.262Z,3505
2016-03-14T10:57:18.076Z,3505
2016-03-14T10:57:31.982Z,3485
2016-03-14T10:57:46.248Z,3425
2016-03-14T10:58:00.357Z,3355
2016-03-14T10:58:14.501Z,3310
2016-03-14T10:58:28.688Z,3290
2016-03-14T10:58:42.767Z,3310
2016-03-14T10:58:56.829Z,3335
2016-03-14T10:59:10.735Z,3370
2016-03-14T10:59:24.909Z,3400
2016-03-14T10:59:39.065Z,3410
2016-03-14T10:59:53.347Z,3415
2016-03-14T11:00:07.222Z,3405
2016-03-14T11:00:21.787Z,3395
2016-03-14T11:00:35.740Z,3380
2016-03-14T11:00:50.053Z,3380
2016-03-14T11:01:04.007Z,3405
2016-03-14T11:01:18.229Z,3440
2016-03-14T11:01:32.213Z,3455
2016-03-14T11:01:46.322Z,3470
2016-03-14T11:02:00.322Z,3425
2016-03-14T11:02:14.356Z,3415
2016-03-14T11:02:28.653Z,3435
2016-03-14T11:02:42.840Z,3495
2016-03-14T11:02:56.746Z,3555
2016-03-14T11:03:10.871Z,3540
2016-03-14T11:03:24.921Z,3495
2016-03-14T11:03:39.015Z,3425
2016-03-14T11:03:52.843Z,3360
2016-03-14T11:04:06.687Z,3325
2016-03-14T11:04:20.799Z,3310
2016-03-14T11:04:34.862Z,3275
2016-03-14T11:04:48.705Z,3270
2016-03-14T11:05:02.799Z,3310
2016-03-14T11:05:16.740Z,3375
2016-03-14T11:05:30.630Z,3430
2016-03-14T11:05:44.943Z,3455
2016-03-14T11:05:58.865Z,3510
2016-03-14T11:06:12.710Z,3535
2016-03-14T11:06:26.992Z,3580
2016-03-14T11:06:40.820Z,3595
2016-03-14T11:06:55.132Z,3600
2016-03-14T11:07:09.429Z,3590
2016-03-14T11:07:23.338Z,3550
2016-03-14T11:07:37.354Z,3490
2016-03-14T11:07:51.338Z,3420
2016-03-14T11:08:05.432Z,3375
2016-03-14T11:08:19.654Z,3350
2016-03-14T11:08:33.654Z,3345
2016-03-14T11:08:47.670Z,3350
2016-03-14T11:09:01.623Z,3365
2016-03-14T11:09:15.687Z,3370
2016-03-14T11:09:29.734Z,3385
2016-03-14T11:09:43.953Z,3390
2016-03-14T11:09:57.968Z,3390
2016-03-14T11:10:11.937Z,3430
2016-03-14T11:10:26.518Z,3530
2016-03-14T11:10:39.784Z,3565
2016-03-14T11:10:54.018Z,3620
2016-03-14T11:11:08.034Z,3605
2016-03-14T11:11:22.036Z,3565
2016-03-14T11:11:36.489Z,3525
2016-03-14T11:11:50.630Z,3480
2016-03-14T11:12:04.645Z,3395
2016-03-14T11:12:18.789Z,3310
2016-03-14T11:12:33.023Z,3260
2016-03-14T11:12:47.242Z,3265
2016-03-14T11:13:01.492Z,3320
2016-03-14T11:13:15.948Z,3360
2016-03-14T11:13:29.901Z,3375
2016-03-14T11:13:43.917Z,3360
2016-03-14T11:13:57.839Z,3350
2016-03-14T11:14:11.808Z,3320
2016-03-14T11:14:25.998Z,3280
2016-03-14T11:14:40.373Z,3235
2016-03-14T11:14:54.279Z,3215
2016-03-14T11:15:08.529Z,3225
2016-03-14T11:15:22.548Z,3230
2016-03-14T11:15:36.626Z,3225
2016-03-14T11:15:50.970Z,3175
2016-03-14T11:16:04.954Z,3155
2016-03-14T11:16:18.987Z,3135
2016-03-14T11:16:33.019Z,3135
2016-03-14T11:16:47.066Z,3130
2016-03-14T11:17:01.081Z,3155
2016-03-14T11:17:15.115Z,3180
2016-03-14T11:17:29.303Z,3220
2016-03-14T11:18:11.319Z,3320
2016-03-14T11:18:25.602Z,3330
2016-03-14T11:18:39.805Z,3345
2016-03-14T11:18:53.930Z,3340
2016-03-14T11:19:07.086Z,3345
2016-03-14T11:19:20.574Z,3355
2016-03-14T11:19:34.824Z,3365
2016-03-14T11:19:49.105Z,3400
2016-03-14T11:20:03.167Z,3445
2016-03-14T11:20:17.233Z,3425
2016-03-14T11:20:31.123Z,3415
2016-03-14T11:20:45.202Z,3385
2016-03-14T11:20:58.983Z,3350
2016-03-14T11:21:13.126Z,3345
2016-03-14T11:21:27.111Z,3380
2016-03-14T11:21:41.004Z,3375
2016-03-14T11:21:54.895Z,3390
2016-03-14T11:22:08.786Z,3395
2016-03-14T11:22:22.928Z,3420
2016-03-14T11:22:36.944Z,3415
2016-03-14T11:22:50.803Z,3420
2016-03-14T11:23:04.288Z,3395
2016-03-14T11:23:32.243Z,3370
2016-03-14T11:23:45.633Z,3375
2016-03-14T11:23:59.587Z,3385
2016-03-14T11:24:13.121Z,3400
2016-03-14T11:24:26.996Z,3400
2016-03-14T11:24:40.886Z,3435
2016-03-14T11:24:55.090Z,3440
2016-03-14T11:25:09.293Z,3465
2016-03-14T11:25:23.139Z,3495
2016-03-14T11:25:37.374Z,3515
2016-03-14T11:25:50.561Z,3525
2016-03-14T11:26:04.811Z,3510
2016-03-14T11:26:18.846Z,3490
2016-03-14T11:26:32.721Z,3465
2016-03-14T11:26:47.002Z,3445
2016-03-14T11:27:01.002Z,3410
2016-03-14T11:27:15.269Z,3390
2016-03-14T11:27:29.238Z,3400
2016-03-14T11:27:43.973Z,3410
2016-03-14T11:27:58.363Z,3425
2016-03-14T11:28:12.238Z,3425
2016-03-14T11:28:26.429Z,3395
2016-03-14T11:28:40.460Z,3370
2016-03-14T11:28:54.397Z,3325
2016-03-14T11:29:08.397Z,3310
2016-03-14T11:29:22.682Z,3305
2016-03-14T11:29:36.697Z,3320
2016-03-14T11:29:50.619Z,3340
2016-03-14T11:30:04.525Z,3390
2016-03-14T11:30:21.746Z,3440
2016-03-14T11:30:35.606Z,3465
2016-03-14T11:30:49.715Z,3485
2016-03-14T11:31:03.121Z,3500
2016-03-14T11:31:17.266Z,3510
2016-03-14T11:31:45.594Z,3525
2016-03-14T11:31:59.735Z,3535
2016-03-14T11:32:13.737Z,3510
2016-03-14T11:32:31.096Z,3475
2016-03-14T11:32:45.112Z,3460
2016-03-14T11:32:59.002Z,3455
2016-03-14T11:33:13.771Z,3445
2016-03-14T11:33:28.130Z,3425
2016-03-14T11:33:42.099Z,3400
2016-03-14T11:33:56.099Z,3375
2016-03-14T11:34:09.958Z,3370
2016-03-14T11:34:23.961Z,3370
2016-03-14T11:34:38.711Z,3365
2016-03-14T11:34:52.649Z,3350
2016-03-14T11:35:38.307Z,3395
2016-03-14T11:35:52.604Z,3405
2016-03-14T11:36:07.182Z,3430
2016-03-14T11:36:21.232Z,3445
2016-03-14T11:36:35.216Z,3460
2016-03-14T11:36:49.154Z,3435
2016-03-14T11:37:02.982Z,3410
2016-03-14T11:37:16.984Z,3405
2016-03-14T11:37:31.203Z,3395
2016-03-14T11:37:45.656Z,3385
2016-03-14T11:37:59.640Z,3370
2016-03-14T11:38:13.596Z,3365
2016-03-14T11:38:27.924Z,3395
2016-03-14T11:38:41.940Z,3425
2016-03-14T11:38:55.940Z,3445
2016-03-14T11:39:10.206Z,3470
2016-03-14T11:39:24.099Z,3470
2016-03-14T11:39:38.318Z,3485
2016-03-14T11:39:52.256Z,3510
2016-03-14T11:40:19.711Z,3495
2016-03-14T11:40:33.664Z,3495
2016-03-14T11:40:47.570Z,3495
2016-03-14T11:41:01.445Z,3480
2016-03-14T11:41:15.824Z,3450
2016-03-14T11:41:29.777Z,3420
2016-03-14T11:41:43.715Z,3395
2016-03-14T11:41:57.621Z,3390
2016-03-14T11:42:11.683Z,3410
2016-03-14T11:42:25.748Z,3445
2016-03-14T11:42:39.764Z,3480
2016-03-14T11:42:53.717Z,3500
2016-03-14T11:43:07.732Z,3470
2016-03-14T11:43:22.125Z,3445
2016-03-14T11:43:36.000Z,3445
2016-03-14T11:43:49.891Z,3460
2016-03-14T11:44:04.016Z,3470
2016-03-14T11:44:18.300Z,3495
2016-03-14T11:44:32.128Z,3495
2016-03-14T11:44:46.081Z,3470
2016-03-14T11:45:00.769Z,3425
2016-03-14T11:45:14.787Z,3405
2016-03-14T11:45:29.053Z,3400
2016-03-14T11:45:42.975Z,3390
2016-03-14T11:45:56.865Z,3380
2016-03-14T11:46:10.897Z,3320
2016-03-14T11:46:24.962Z,3315
2016-03-14T11:46:38.978Z,3300
2016-03-14T11:46:53.071Z,3350
2016-03-14T11:47:07.025Z,3385
2016-03-14T11:47:20.995Z,3450
2016-03-14T11:47:35.464Z,3450
2016-03-14T11:47:49.402Z,3465
2016-03-14T11:48:03.448Z,3465
2016-03-14T11:48:17.795Z,3445
2016-03-14T11:48:31.748Z,3395
2016-03-14T11:48:46.076Z,3385
2016-03-14T11:49:00.092Z,3390
2016-03-14T11:49:14.048Z,3415
2016-03-14T11:49:27.876Z,3435
2016-03-14T11:49:41.892Z,3445
2016-03-14T11:49:55.939Z,3435
2016-03-14T11:50:10.329Z,3435
2016-03-14T11:50:24.848Z,3425
2016-03-14T11:50:38.864Z,3440
2016-03-14T11:50:53.379Z,3420
2016-03-14T11:51:07.614Z,3435
2016-03-14T11:51:22.069Z,3435
2016-03-14T11:51:36.209Z,3420
2016-03-14T11:51:50.413Z,3410
2016-03-14T11:52:04.366Z,3380
2016-03-14T11:52:18.494Z,3370
2016-03-14T11:52:32.447Z,3355
2016-03-14T11:52:46.806Z,3375
2016-03-14T11:53:20.496Z,3410
2016-03-14T11:53:34.543Z,3415
2016-03-14T11:53:48.652Z,3400
2016-03-14T11:54:02.652Z,3385
2016-03-14T11:54:16.382Z,3335
2016-03-14T11:54:30.179Z,3305
2016-03-14T11:54:44.257Z,3270
2016-03-14T11:54:58.210Z,3280
2016-03-14T11:55:12.304Z,3290
2016-03-14T11:55:26.158Z,3305
2016-03-14T11:55:40.298Z,3320
2016-03-14T11:55:54.220Z,3320
2016-03-14T11:56:08.204Z,3345
2016-03-14T11:56:22.196Z,3360
2016-03-14T11:56:36.243Z,3370
2016-03-14T11:57:21.611Z,3410
2016-03-14T11:57:49.861Z,3420
2016-03-14T11:58:03.877Z,3400
2016-03-14T11:58:18.073Z,3405
2016-03-14T11:58:32.251Z,3400
2016-03-14T11:58:46.454Z,3410
2016-03-14T11:59:00.407Z,3415
2016-03-14T11:59:14.904Z,3430
2016-03-14T11:59:29.045Z,3430
2016-03-14T11:59:42.810Z,3415
2016-03-14T12:00:10.904Z,3365
2016-03-14T12:00:24.966Z,3360
2016-03-14T12:00:38.794Z,3370
2016-03-14T12:01:48.543Z,3475
2016-03-14T12:02:02.527Z,3530
2016-03-14T12:02:16.339Z,3550
2016-03-14T12:02:30.089Z,3530
2016-03-14T12:02:43.792Z,3490
2016-03-14T12:02:57.792Z,3445
2016-03-14T12:03:11.604Z,3405
2016-03-14T12:03:24.697Z,3365
2016-03-14T12:03:38.884Z,3335